DW7915 Weather Reports


Display with metric or nautical units.
time (UTC)temp
F
wind
direction
speed
MPH
gust
MPH
rain 1hr
in
rain 24hr
in
rain mn
in
humidity
%
barometer
mb
20200709090350 60 273 1.0 2.0 0.16 0.39 0.06 95 1011.5
20200709085837 60 274 1.0 3.0 0.16 0.39 0.06 95 1011.6
20200709085343 60 278 0.0 3.0 0.16 0.39 0.06 95 1011.7
20200709084832 60 281 0.0 2.0 0.12 0.35 0.05 95 1011.8
20200709084345 60 281 1.0 2.0 0.16 0.35 0.05 95 1011.9
20200709083840 60 281 0.0 2.0 0.12 0.31 0.04 95 1011.9
20200709083343 60 282 0.0 1.0 0.16 0.31 0.04 95 1011.9
20200709082847 60 283 0.0 1.0 0.16 0.31 0.04 95 1012.1
20200709082336 60 283 0.0 2.0 0.12 0.28 0.03 95 1012.1
20200709081845 60 283 0.0 2.0 0.08 0.24 0.02 95 1012.3
20200709081332 60 283 0.0 1.0 0.08 0.24 0.02 94 1012.3
20200709080832 60 283 0.0 3.0 0.08 0.24 0.02 94 1012.3
20200709080348 60 283 1.0 3.0 0.08 0.24 0.02 94 1012.4
20200709075833 60 284 0.0 4.0 0.08 0.24 0.02 94 1012.4
20200709075349 60 284 0.0 4.0 0.08 0.24 0.02 95 1012.4
20200709074854 60 284 0.0 2.0 0.08 0.24 0.02 95 1012.5
20200709074349 60 284 0.0 1.0 0.04 0.20 0.02 95 1012.5
20200709073837 60 284 0.0 1.0 0.04 0.20 0.02 94 1012.6
20200709073341 60 284 0.0 2.0 0.00 0.16 0.01 94 1012.7
20200709072847 60 284 0.0 2.0 0.00 0.16 0.01 94 1012.7
20200709072333 60 284 0.0 4.0 0.00 0.16 0.01 94 1012.8
20200709071843 60 284 1.0 4.0 0.00 0.16 0.01 94 1012.9
20200709071405 59 291 0.0 2.0 0.00 0.16 0.01 95 1013.0
20200709070858 59 291 1.0 2.0 0.00 0.16 0.01 94 1013.0
20200709070401 59 291 327.0 327.0 0.00 0.00 0.01 95 1012.9
20200709065839 59 291 0.0 0.0 0.00 0.16 0.01 95 1013.0
20200709065332 59 291 0.0 3.0 0.00 0.16 0.01 95 1012.9
20200709064842 59 291 0.0 3.0 0.00 0.16 0.01 95 1012.9
20200709064348 59 294 0.0 1.0 0.00 0.16 0.01 95 1012.9
20200709063839 59 294 0.0 2.0 0.00 0.16 0.01 95 1013.0
20200709063347 59 294 0.0 2.0 0.00 0.16 0.01 95 1013.0
20200709062834 58 294 0.0 2.0 0.00 0.16 0.01 95 1013.2
20200709062328 58 294 0.0 1.0 0.00 0.16 0.01 95 1013.1
20200709061840 58 294 0.0 2.0 0.00 0.16 0.01 95 1013.1
20200709061404 58 294 0.0 2.0 0.00 0.16 0.01 95 1013.1
20200709060842 58 294 0.0 1.0 0.00 0.16 0.01 95 1013.0
20200709060348 58 294 0.0 1.0 0.00 0.16 0.01 95 1013.2
20200709055856 58 294 0.0 2.0 0.00 0.16 0.01 95 1013.3
20200709054846 58 294 0.0 0.0 0.00 0.16 0.01 95 1013.4
20200709054332 58 294 0.0 1.0 0.00 0.16 0.01 95 1013.4
20200709053843 58 294 0.0 1.0 0.00 0.16 0.01 95 1013.5
20200709053351 58 294 0.0 1.0 0.00 0.16 0.01 95 1013.4
20200709052832 57 294 0.0 2.0 0.00 0.16 0.01 95 1013.5
20200709052342 57 294 0.0 2.0 0.00 0.16 0.01 95 1013.6
20200708202836 56 294 0.0 0.0 0.00 0.16 0.03 93 1015.9
20200708202345 56 294 0.0 1.0 0.00 0.16 0.03 93 1016.1
20200708201833 56 294 0.0 1.0 0.00 0.16 0.03 93 1016.1
20200708201350 56 294 0.0 1.0 0.00 0.16 0.03 93 1016.0
20200708200851 56 294 0.0 1.0 0.00 0.16 0.03 93 1016.1
20200708200328 56 294 0.0 0.0 0.00 0.16 0.03 93 1016.0
20200708195830 56 294 0.0 0.0 0.00 0.16 0.03 93 1016.0
20200708195339 56 294 0.0 0.0 0.00 0.16 0.03 93 1016.0
20200708194827 56 294 0.0 0.0 0.04 0.16 0.03 92 1015.9
20200708194330 56 294 0.0 0.0 0.04 0.16 0.03 92 1015.9
20200708193838 56 294 0.0 0.0 0.08 0.16 0.03 92 1015.8
20200708193344 57 294 0.0 0.0 0.08 0.16 0.03 92 1015.8
20200708192827 57 294 0.0 0.0 0.08 0.16 0.03 92 1015.8
20200708192404 57 294 0.0 0.0 0.08 0.16 0.03 92 1015.8
20200708191830 57 294 0.0 2.0 0.08 0.16 0.03 92 1015.8
20200708191327 57 294 0.0 1.0 0.08 0.16 0.03 92 1015.8
20200708190840 57 294 0.0 2.0 0.08 0.16 0.03 92 1015.8
20200708190401 57 0.0 2.0 0.08 0.16 0.03 92 1015.7
20200708185839 57 360 0.0 1.0 0.08 0.16 0.03 91 1015.6
20200708185329 57 360 0.0 2.0 0.08 0.16 0.03 91 1015.6
20200708184836 57 360 0.0 2.0 0.04 0.12 0.02 91 1015.7
20200708184330 58 294 0.0 4.0 0.04 0.12 0.02 91 1015.8
20200708183841 58 294 2.0 4.0 0.00 0.08 0.02 91 1015.8
20200708183331 58 294 1.0 4.0 0.00 0.08 0.02 90 1015.8
20200708182836 58 294 1.0 7.0 0.00 0.08 0.02 90 1015.7
20200708182346 58 294 1.0 7.0 0.00 0.08 0.02 90 1015.8
20200708181831 58 292 2.0 5.0 0.04 0.08 0.02 90 1015.6
20200708181336 58 288 2.0 4.0 0.04 0.08 0.02 90 1015.6
20200708180847 58 286 1.0 3.0 0.04 0.08 0.02 89 1015.5
20200708180348 58 286 0.0 2.0 0.04 0.08 0.02 90 1015.4
20200708175835 58 287 0.0 2.0 0.04 0.08 0.02 89 1015.3
20200708175344 58 287 0.0 2.0 0.04 0.08 0.02 89 1015.3
20200708174834 59 287 0.0 2.0 0.04 0.08 0.02 89 1015.4
20200708174332 59 287 0.0 2.0 0.04 0.08 0.02 89 1015.4
20200708173842 59 287 1.0 2.0 0.04 0.08 0.02 88 1015.4
20200708173351 59 287 0.0 2.0 0.04 0.08 0.02 87 1015.3
20200708172830 59 360 1.0 3.0 0.04 0.08 0.02 87 1015.3
20200708172339 59 360 1.0 3.0 0.04 0.08 0.02 86 1015.3
20200708171827 60 360 1.0 3.0 0.00 0.04 0.01 85 1015.3
20200708171330 60 360 1.0 4.0 0.00 0.04 0.01 84 1015.3
20200708170841 61 360 1.0 4.0 0.00 0.04 0.01 83 1015.2
20200708170344 61 360 1.0 4.0 0.00 0.04 0.01 82 1015.1
20200708165838 61 287 2.0 4.0 0.00 0.08 0.01 79 1015.1
20200708165344 61 296 1.0 3.0 0.00 0.08 0.01 78 1015.1
20200708164828 61 296 1.0 2.0 0.00 0.08 0.01 78 1015.0
20200708164330 61 296 1.0 3.0 0.00 0.08 0.01 78 1015.0
20200708163837 61 296 2.0 3.0 0.00 0.08 0.01 78 1015.1
20200708163344 61 296 2.0 4.0 0.00 0.08 0.01 77 1015.1
20200708162830 61 296 1.0 4.0 0.00 0.08 0.01 77 1015.1
20200708162339 62 297 2.0 4.0 0.00 0.08 0.01 77 1015.1
20200708161845 62 291 1.0 4.0 0.00 0.08 0.01 77 1015.1
20200708161403 62 291 1.0 3.0 0.00 0.08 0.01 77 1015.1
20200708160839 62 291 1.0 4.0 0.00 0.08 0.01 77 1015.1
20200708160345 62 291 2.0 4.0 0.00 0.08 0.01 77 1015.1
20200708155830 62 291 1.0 4.0 0.00 0.08 0.01 78 1015.1
20200708155341 62 292 1.0 7.0 0.00 0.08 0.01 76 1015.1
20200708154830 62 291 4.0 7.0 0.00 0.08 0.01 75 1015.1
20200708154327 62 286 1.0 7.0 0.00 0.08 0.01 77 1015.2
20200708153837 62 284 2.0 5.0 0.00 0.08 0.01 76 1015.2
20200708153328 62 284 2.0 4.0 0.00 0.08 0.01 76 1015.2
20200708152832 62 283 1.0 3.0 0.00 0.08 0.01 76 1015.2
20200708152346 62 283 1.0 4.0 0.00 0.08 0.01 77 1015.2
20200708151842 62 284 2.0 4.0 0.00 0.08 0.01 77 1015.2
20200708151333 62 282 2.0 5.0 0.00 0.08 0.01 77 1015.2
20200708150844 62 282 2.0 5.0 0.00 0.08 0.01 78 1015.3
20200708150334 61 284 0.0 4.0 0.00 0.08 0.01 78 1015.3
20200708145829 61 284 3.0 4.0 0.00 0.08 0.01 78 1015.3
20200708145336 61 284 2.0 5.0 0.00 0.08 0.01 80 1015.3
20200708144828 61 284 3.0 5.0 0.00 0.08 0.01 80 1015.2
20200708144332 61 282 1.0 4.0 0.00 0.08 0.01 80 1015.3
20200708143840 61 296 2.0 4.0 0.00 0.08 0.01 80 1015.3
20200708143329 61 296 2.0 5.0 0.00 0.08 0.01 80 1015.3
20200708142831 61 296 2.0 5.0 0.00 0.08 0.01 81 1015.3
20200708142339 61 308 2.0 6.0 0.00 0.08 0.01 82 1015.3
20200708141834 61 308 2.0 6.0 0.00 0.08 0.01 81 1015.2
20200708141350 60 306 2.0 6.0 0.00 0.08 0.01 81 1015.2
20200708140850 61 306 2.0 6.0 0.00 0.08 0.01 81 1015.2
20200708140346 61 305 3.0 5.0 0.00 0.08 0.01 81 1015.2
20200708135843 61 295 2.0 4.0 0.00 0.08 0.01 80 1015.2
20200708135332 61 296 1.0 4.0 0.00 0.08 0.01 81 1015.2
20200708134825 61 296 2.0 5.0 0.00 0.08 0.01 80 1015.2
20200708134328 61 296 3.0 5.0 0.00 0.08 0.01 80 1015.3
20200708133838 61 292 2.0 7.0 0.00 0.08 0.01 79 1015.2
20200708133329 61 300 3.0 8.0 0.00 0.08 0.01 78 1015.2
20200708132831 61 300 4.0 8.0 0.00 0.08 0.01 76 1015.1
20200708132341 62 313 1.0 8.0 0.00 0.08 0.01 76 1015.1
20200708131830 62 360 2.0 8.0 0.00 0.08 0.01 76 1015.1
20200708131343 62 269 1.0 4.0 0.00 0.08 0.01 74 1015.0
20200708130842 63 360 2.0 7.0 0.00 0.08 0.01 74 1015.0
20200708130342 63 238 2.0 4.0 0.00 0.08 0.01 75 1015.0
20200708125835 63 241 2.0 4.0 0.00 0.08 0.01 76 1015.0
20200708125341 62 241 1.0 5.0 0.00 0.08 0.01 77 1015.0
20200708124829 62 270 2.0 4.0 0.00 0.08 0.01 79 1015.0
20200708124341 61 278 2.0 4.0 0.00 0.08 0.01 78 1014.9
20200708123828 61 285 1.0 5.0 0.00 0.08 0.01 80 1014.9
20200708123335 61 286 2.0 5.0 0.00 0.08 0.01 80 1014.9
20200708122835 60 289 1.0 3.0 0.00 0.08 0.01 81 1014.9
20200708122343 60 289 2.0 7.0 0.00 0.08 0.01 80 1014.9
20200708121830 60 289 4.0 7.0 0.00 0.08 0.01 79 1014.9
20200708121347 60 288 2.0 5.0 0.00 0.08 0.01 80 1015.0
20200708120847 60 287 2.0 5.0 0.00 0.08 0.01 79 1015.1
20200708120331 60 290 2.0 5.0 0.00 0.08 0.01 79 1015.0
20200708115828 60 290 2.0 4.0 0.00 0.08 0.01 81 1015.0
20200708115338 60 298 1.0 4.0 0.00 0.08 0.01 81 1015.1
20200708114829 60 300 1.0 3.0 0.00 0.08 0.01 82 1015.0
20200708114337 60 300 1.0 4.0 0.00 0.08 0.01 82 1015.0
20200708113828 59 300 2.0 6.0 0.00 0.08 0.01 81 1015.0
20200708113336 59 300 1.0 6.0 0.00 0.08 0.01 81 1015.0
20200708112836 59 290 1.0 5.0 0.00 0.08 0.01 82 1015.1
20200708112334 59 290 1.0 7.0 0.00 0.08 0.01 82 1015.1
20200708111845 59 290 2.0 7.0 0.00 0.08 0.01 82 1015.1
20200708111343 59 284 1.0 4.0 0.00 0.08 0.01 84 1014.9
20200708110840 59 284 1.0 4.0 0.00 0.08 0.01 84 1015.0
20200708110359 59 284 1.0 3.0 0.00 0.08 0.01 84 1015.1
20200708105839 58 284 1.0 5.0 0.00 0.08 0.01 84 1015.0
20200708105345 58 284 2.0 6.0 0.00 0.08 0.01 84 1015.0
20200708104835 58 273 3.0 6.0 0.00 0.08 0.01 84 1015.0
20200708104336 58 273 2.0 4.0 0.00 0.08 0.01 84 1015.0
20200708103841 58 273 1.0 4.0 0.00 0.08 0.01 86 1015.0
20200708103330 58 275 2.0 3.0 0.00 0.08 0.01 86 1015.0
20200708102831 58 275 1.0 4.0 0.00 0.08 0.01 85 1015.0
20200708102339 58 275 1.0 4.0 0.00 0.08 0.01 85 1015.0
20200708101831 57 277 0.0 3.0 0.00 0.08 0.01 86 1015.0
20200708101336 57 277 1.0 4.0 0.00 0.08 0.01 85 1015.0
20200708100844 58 281 2.0 4.0 0.00 0.08 0.01 85 1015.0
20200708100343 58 281 1.0 3.0 0.00 0.08 0.01 86 1015.0
20200708095842 58 281 1.0 3.0 0.00 0.08 0.01 88 1015.0
20200708095329 57 281 0.0 1.0 0.00 0.08 0.01 88 1014.9
20200708094836 57 281 0.0 2.0 0.00 0.08 0.01 88 1014.9
20200708094340 57 281 1.0 3.0 0.00 0.08 0.01 87 1014.9
20200708093827 57 281 1.0 3.0 0.00 0.08 0.01 87 1014.8
20200708093335 57 281 0.0 2.0 0.00 0.08 0.01 87 1014.8
20200708092838 57 281 1.0 2.0 0.00 0.08 0.01 87 1014.9
20200708092326 57 281 0.0 3.0 0.00 0.08 0.01 88 1014.9
20200708091358 57 281 1.0 3.0 0.00 0.08 0.01 87 1014.8
20200708090847 57 281 1.0 3.0 0.00 0.08 0.01 87 1014.8